Time;durP1;ratioP1;P1;durP2;ratioP2;P2;SDS_P1;SDS_P2;PMS_P1;PMS_P2;Temp;Humidity;BMP_temperature;BMP_pressure;BME280_temperature;BME280_humidity;BME280_pressure;Samples;Min_cycle;Max_cycle;Signal;HPM_P1;HPM_P2
2022/01/29 00:00:36;;;;;;;;;;;;;;;3.03;57.46;100053.69;5091688;28;1921;-57
2022/01/29 00:03:02;;;;;;;;;;;;;;;2.88;58.07;100056.31;5091982;28;767;-57
2022/01/29 00:05:29;;;;;;;;;;;;;;;2.68;58.14;100047.94;5107342;28;847;-57
2022/01/29 00:07:55;;;;;;;;;;;;;;;2.56;58.09;100047.94;5091580;28;815;-57
2022/01/29 00:10:22;;;;;;;;;;;;;;;2.47;58.24;100050.00;5091493;28;898;-57
2022/01/29 00:12:48;;;;;;;;;;;;;;;2.35;58.67;100046.16;5091406;28;864;-57
2022/01/29 00:15:15;;;;;;;;;;;;;;;2.27;58.62;100055.22;5091441;28;1026;-57
2022/01/29 00:17:41;;;;;;;;;;;;;;;2.15;59.59;100053.28;5091102;28;1505;-57
2022/01/29 00:20:08;;;;;;;;;;;;;;;1.99;59.98;100055.09;5091627;28;1977;-57
2022/01/29 00:22:34;;;;;;;;;;;;;;;1.89;59.36;100058.25;5091446;28;944;-57
2022/01/29 00:25:00;;;;;;;;;;;;;;;1.61;59.91;100058.84;5091311;28;807;-56
2022/01/29 00:27:32;;;;;;;;;;;;;;;1.57;60.36;100055.22;5091282;28;882;-57
2022/01/29 00:30:03;;;;;;;;;;;;;;;1.33;60.92;100064.09;5091278;28;907;-57
2022/01/29 00:32:30;;;;;;;;;;;;;;;1.08;62.33;100076.78;5091215;28;910;-57
2022/01/29 00:34:56;;;;;;;;;;;;;;;1.18;62.56;100079.09;5091745;28;806;-57
2022/01/29 00:37:23;;;;;;;;;;;;;;;1.27;62.15;100068.94;5094272;28;818;-57
2022/01/29 00:39:49;;;;;;;;;;;;;;;1.29;62.35;100065.88;5095418;28;1890;-57
2022/01/29 00:42:15;;;;;;;;;;;;;;;1.25;62.10;100068.47;5095519;28;802;-57
2022/01/29 00:44:42;;;;;;;;;;;;;;;1.10;62.73;100069.06;5095234;28;1090;-56
2022/01/29 00:47:08;;;;;;;;;;;;;;;0.87;62.75;100076.75;5095354;28;854;-57
2022/01/29 00:49:35;;;;;;;;;;;;;;;0.76;63.67;100074.41;5095119;28;806;-57
2022/01/29 00:52:01;;;;;;;;;;;;;;;1.05;63.17;100077.44;5095054;28;834;-57
2022/01/29 00:54:27;;;;;;;;;;;;;;;1.27;62.92;100071.66;5094814;28;905;-57
2022/01/29 00:56:54;;;;;;;;;;;;;;;1.55;62.08;100066.44;5095026;28;870;-57
2022/01/29 00:59:20;;;;;;;;;;;;;;;1.68;61.45;100072.72;5094794;28;1973;-57
2022/01/29 01:01:47;;;;;;;;;;;;;;;1.75;61.70;100077.63;5094874;28;874;-57
2022/01/29 01:04:16;;;;;;;;;;;;;;;1.70;61.42;100061.50;5094789;28;858;-57
2022/01/29 01:06:42;;;;;;;;;;;;;;;1.63;61.11;100071.00;5094819;28;810;-57
2022/01/29 01:09:09;;;;;;;;;;;;;;;1.62;62.11;100071.34;5094669;28;795;-57
2022/01/29 01:11:35;;;;;;;;;;;;;;;1.50;61.59;100068.59;5094681;28;1029;-57
2022/01/29 01:14:02;;;;;;;;;;;;;;;1.40;62.04;100062.41;5094547;28;838;-57
2022/01/29 01:16:28;;;;;;;;;;;;;;;1.41;61.98;100074.13;5094544;28;1370;-57
2022/01/29 01:18:55;;;;;;;;;;;;;;;1.34;62.58;100071.91;5094536;28;905;-57
2022/01/29 01:21:21;;;;;;;;;;;;;;;1.55;61.62;100074.59;5094340;28;1973;-57
2022/01/29 01:23:47;;;;;;;;;;;;;;;1.37;61.43;100065.81;5094403;28;874;-57
2022/01/29 01:26:14;;;;;;;;;;;;;;;0.93;62.59;100065.34;5094374;28;846;-57
2022/01/29 01:28:40;;;;;;;;;;;;;;;0.53;63.30;100068.47;5094312;28;861;-57
2022/01/29 01:31:06;;;;;;;;;;;;;;;0.15;64.84;100077.47;5094234;28;842;-57
2022/01/29 01:33:33;;;;;;;;;;;;;;;-0.12;65.99;100080.59;5094272;28;898;-57
2022/01/29 01:36:03;;;;;;;;;;;;;;;-0.25;66.50;100085.09;5094216;28;811;-56
2022/01/29 01:38:48;;;;;;;;;;;;;;;-0.29;66.74;100095.00;5094026;28;953;-57
2022/01/29 01:41:20;;;;;;;;;;;;;;;-0.45;67.32;100100.94;5094075;28;1885;-56
2022/01/29 01:43:47;;;;;;;;;;;;;;;-0.60;67.53;100106.84;5093902;28;862;-57
2022/01/29 01:46:13;;;;;;;;;;;;;;;-0.79;68.35;100103.63;5094064;28;819;-56
2022/01/29 01:48:40;;;;;;;;;;;;;;;-0.98;68.45;100102.03;5075679;28;1523;-57
2022/01/29 01:51:07;;;;;;;;;;;;;;;-0.98;69.06;100109.38;5093819;28;791;-57
2022/01/29 01:53:34;;;;;;;;;;;;;;;-0.91;69.78;100105.06;5093876;28;806;-57
2022/01/29 01:56:00;;;;;;;;;;;;;;;-0.88;69.39;100115.28;5093761;28;827;-57
2022/01/29 01:58:26;;;;;;;;;;;;;;;-1.12;69.11;100106.81;5093852;28;818;-57
2022/01/29 02:00:53;;;;;;;;;;;;;;;-1.25;70.25;100108.53;5093652;28;1889;-57
2022/01/29 02:03:19;;;;;;;;;;;;;;;-1.36;71.01;100110.75;5093722;28;822;-57
2022/01/29 02:05:46;;;;;;;;;;;;;;;-1.17;71.38;100106.94;5093659;28;862;-57
2022/01/29 02:08:14;;;;;;;;;;;;;;;-1.01;70.81;100110.00;5093584;28;1107;-57
2022/01/29 02:10:44;;;;;;;;;;;;;;;-1.20;70.69;100113.00;5093433;28;966;-57
2022/01/29 02:13:11;;;;;;;;;;;;;;;-1.45;71.09;100108.00;5093296;28;914;-57
2022/01/29 02:15:37;;;;;;;;;;;;;;;-1.56;72.06;100114.81;5093499;28;982;-57
2022/01/29 02:18:05;;;;;;;;;;;;;;;-1.67;72.15;100118.91;5093174;28;1445;-57
2022/01/29 02:20:32;;;;;;;;;;;;;;;-1.63;73.15;100114.47;5093203;28;1980;-57
2022/01/29 02:23:00;;;;;;;;;;;;;;;-1.50;72.36;100118.19;5093171;28;807;-57
2022/01/29 02:25:40;;;;;;;;;;;;;;;-1.59;72.97;100117.38;5093397;28;848;-57
2022/01/29 02:28:09;;;;;;;;;;;;;;;-1.72;73.53;100119.84;5108922;28;857;-57
2022/01/29 02:30:38;;;;;;;;;;;;;;;-1.75;73.71;100127.81;5093043;28;889;-57
2022/01/29 02:33:07;;;;;;;;;;;;;;;-1.86;73.50;100132.69;5093159;28;866;-57
2022/01/29 02:35:36;;;;;;;;;;;;;;;-1.86;74.17;100125.38;5092916;28;928;-57
2022/01/29 02:38:03;;;;;;;;;;;;;;;-1.81;73.88;100127.16;5093094;28;826;-57
2022/01/29 02:40:34;;;;;;;;;;;;;;;-1.81;73.69;100138.00;5092675;28;1909;-57
2022/01/29 02:43:22;;;;;;;;;;;;;;;-1.82;73.39;100135.59;5092950;28;867;-57
2022/01/29 02:45:52;;;;;;;;;;;;;;;-1.94;74.30;100145.09;5093329;28;890;-57
2022/01/29 02:48:20;;;;;;;;;;;;;;;-1.98;74.30;100154.94;5092593;28;910;-57
2022/01/29 02:50:47;;;;;;;;;;;;;;;-2.03;74.53;100156.97;5092946;28;934;-57
2022/01/29 02:53:14;;;;;;;;;;;;;;;-2.16;75.30;100159.44;5092755;28;850;-57
2022/01/29 02:55:41;;;;;;;;;;;;;;;-2.22;75.45;100152.53;5092703;28;843;-57
2022/01/29 02:58:08;;;;;;;;;;;;;;;-2.37;75.79;100144.78;5092640;28;870;-57
2022/01/29 03:00:35;;;;;;;;;;;;;;;-2.47;75.65;100160.19;5091927;28;1889;-56
2022/01/29 03:03:01;;;;;;;;;;;;;;;-2.53;75.68;100155.19;5092466;28;854;-57
2022/01/29 03:05:27;;;;;;;;;;;;;;;-2.44;76.29;100158.75;5092359;28;930;-57
2022/01/29 03:07:54;;;;;;;;;;;;;;;-2.42;76.44;100161.97;5092268;28;931;-57
2022/01/29 03:10:22;;;;;;;;;;;;;;;-2.29;76.57;100168.44;5092308;28;867;-57
2022/01/29 03:12:48;;;;;;;;;;;;;;;-2.20;75.92;100165.78;5092477;28;937;-57
2022/01/29 03:15:15;;;;;;;;;;;;;;;-2.19;75.73;100170.09;5092245;28;904;-57
2022/01/29 03:17:42;;;;;;;;;;;;;;;-2.05;75.78;100173.53;5092179;28;1279;-57
2022/01/29 03:20:09;;;;;;;;;;;;;;;-1.79;75.47;100178.31;5092013;28;1967;-57
2022/01/29 03:22:36;;;;;;;;;;;;;;;-1.78;74.89;100171.78;5074074;28;1367;-57
2022/01/29 03:25:04;;;;;;;;;;;;;;;-1.79;74.74;100173.72;5092046;28;867;-57
2022/01/29 03:27:30;;;;;;;;;;;;;;;-1.81;74.54;100183.25;5092025;28;806;-57
2022/01/29 03:29:57;;;;;;;;;;;;;;;-1.95;74.57;100181.41;5092065;28;897;-57
2022/01/29 03:32:22;;;;;;;;;;;;;;;-1.93;75.03;100186.53;5092288;28;838;-56
2022/01/29 03:34:49;;;;;;;;;;;;;;;-1.87;74.88;100182.59;5092321;28;877;-56
2022/01/29 03:37:15;;;;;;;;;;;;;;;-1.95;74.79;100194.16;5092722;28;822;-57
2022/01/29 03:39:44;;;;;;;;;;;;;;;-2.01;74.86;100196.19;5092356;28;1925;-56
2022/01/29 03:42:13;;;;;;;;;;;;;;;-1.99;75.43;100201.31;5091966;28;965;-56
2022/01/29 03:44:39;;;;;;;;;;;;;;;-1.88;75.37;100200.75;5091748;28;862;-56
2022/01/29 03:47:06;;;;;;;;;;;;;;;-1.79;75.00;100202.69;5091849;28;854;-56
2022/01/29 03:49:32;;;;;;;;;;;;;;;-1.77;74.86;100204.00;5091923;28;846;-56
2022/01/29 03:51:58;;;;;;;;;;;;;;;-1.70;74.32;100206.28;5091830;28;985;-57
2022/01/29 03:54:24;;;;;;;;;;;;;;;-1.58;74.02;100213.81;5092012;28;795;-57
2022/01/29 03:56:51;;;;;;;;;;;;;;;-1.58;73.47;100213.81;5092064;28;868;-56
2022/01/29 03:59:18;;;;;;;;;;;;;;;-1.82;73.43;100214.97;5091769;28;874;-57
2022/01/29 04:01:44;;;;;;;;;;;;;;;-2.11;73.88;100216.22;5092222;28;1902;-57
2022/01/29 04:04:11;;;;;;;;;;;;;;;-2.25;75.31;100223.59;5073424;28;1296;-56
2022/01/29 04:06:37;;;;;;;;;;;;;;;-2.16;76.07;100220.94;5091583;28;854;-56
2022/01/29 04:09:05;;;;;;;;;;;;;;;-2.29;75.01;100217.19;5091661;28;787;-56
2022/01/29 04:11:36;;;;;;;;;;;;;;;-2.33;75.85;100221.59;5093027;28;961;-56
2022/01/29 04:14:02;;;;;;;;;;;;;;;-2.30;75.64;100223.72;5110804;28;918;-56
2022/01/29 04:16:29;;;;;;;;;;;;;;;-2.30;76.42;100221.78;5096137;28;1204;-57
2022/01/29 04:18:55;;;;;;;;;;;;;;;-2.45;75.81;100195.06;5096035;28;876;-56
2022/01/29 04:21:21;;;;;;;;;;;;;;;-2.27;75.85;100214.97;5096056;28;1977;-57
2022/01/29 04:23:48;;;;;;;;;;;;;;;-2.22;75.72;100214.03;5096531;28;791;-56
2022/01/29 04:26:14;;;;;;;;;;;;;;;-2.35;75.56;100215.69;5096041;28;881;-57
2022/01/29 04:28:43;;;;;;;;;;;;;;;-2.50;76.25;100216.81;5095520;28;861;-57
2022/01/29 04:31:17;;;;;;;;;;;;;;;-2.53;75.99;100217.44;5095728;28;889;-57
2022/01/29 04:33:44;;;;;;;;;;;;;;;-2.43;76.95;100208.28;5095396;28;885;-57
2022/01/29 04:36:10;;;;;;;;;;;;;;;-2.41;77.05;100215.03;5095387;28;846;-56
2022/01/29 04:38:37;;;;;;;;;;;;;;;-2.32;76.94;100215.88;5095076;28;863;-57
2022/01/29 04:41:05;;;;;;;;;;;;;;;-2.33;77.34;100216.97;5095091;28;1877;-57
2022/01/29 04:43:33;;;;;;;;;;;;;;;-2.19;77.02;100218.84;5095260;28;850;-56
2022/01/29 04:45:59;;;;;;;;;;;;;;;-2.23;76.39;100226.00;5095086;28;948;-56
2022/01/29 04:48:26;;;;;;;;;;;;;;;-2.49;77.21;100223.84;5095087;28;798;-57
2022/01/29 04:50:52;;;;;;;;;;;;;;;-2.74;77.27;100223.28;5110778;28;917;-57
2022/01/29 04:53:18;;;;;;;;;;;;;;;-2.81;77.49;100230.22;5095118;28;818;-57
2022/01/29 04:55:44;;;;;;;;;;;;;;;-2.84;78.09;100233.53;5076774;28;1448;-57
2022/01/29 04:58:11;;;;;;;;;;;;;;;-2.95;77.49;100236.44;5094992;28;846;-57
2022/01/29 05:00:38;;;;;;;;;;;;;;;-3.12;77.72;100241.66;5094782;28;1882;-56
2022/01/29 05:03:12;;;;;;;;;;;;;;;-3.16;78.35;100246.88;5094845;28;882;-56
2022/01/29 05:05:39;;;;;;;;;;;;;;;-3.19;78.77;100244.75;5094684;28;879;-56
2022/01/29 05:08:05;;;;;;;;;;;;;;;-3.02;79.23;100246.06;5094691;28;905;-57
2022/01/29 05:10:32;;;;;;;;;;;;;;;-2.91;79.00;100250.16;5094639;28;937;-57
2022/01/29 05:13:11;;;;;;;;;;;;;;;-2.87;79.12;100249.25;5094650;28;839;-57
2022/01/29 05:29:15;;;;;;;;;;;;;;;-1.88;77.30;100267.69;5095517;28;633;-57
2022/01/29 05:31:42;;;;;;;;;;;;;;;-1.86;76.85;100263.56;5094293;28;898;-57
2022/01/29 05:34:08;;;;;;;;;;;;;;;-2.00;76.41;100268.25;5094525;28;822;-57
2022/01/29 05:36:35;;;;;;;;;;;;;;;-2.11;77.44;100275.00;5094180;28;862;-57
2022/01/29 05:39:01;;;;;;;;;;;;;;;-2.09;77.56;100273.59;5093994;28;867;-57
2022/01/29 05:41:30;;;;;;;;;;;;;;;-2.10;77.71;100271.19;5094064;28;1882;-57
2022/01/29 05:43:57;;;;;;;;;;;;;;;-1.79;77.90;100278.56;5093977;28;862;-57
2022/01/29 05:46:24;;;;;;;;;;;;;;;-1.13;77.07;100276.09;5094453;28;850;-57
2022/01/29 05:48:50;;;;;;;;;;;;;;;-0.53;74.88;100272.81;5093998;28;865;-57
2022/01/29 05:51:17;;;;;;;;;;;;;;;-0.12;73.21;100271.56;5093960;28;886;-57
2022/01/29 05:53:43;;;;;;;;;;;;;;;-0.30;72.43;100275.38;5093837;28;858;-57
2022/01/29 05:56:10;;;;;;;;;;;;;;;-0.76;72.21;100271.31;5093782;28;859;-57
2022/01/29 05:58:36;;;;;;;;;;;;;;;-0.97;72.36;100277.28;5093735;28;807;-57
2022/01/29 06:01:03;;;;;;;;;;;;;;;-1.05;72.21;100283.47;5093690;28;1948;-57
2022/01/29 06:03:30;;;;;;;;;;;;;;;-0.90;71.94;100287.69;5093731;28;823;-56
2022/01/29 06:05:56;;;;;;;;;;;;;;;-0.57;71.16;100293.56;5093618;28;803;-57
2022/01/29 06:08:22;;;;;;;;;;;;;;;-0.16;70.22;100297.78;5093440;28;963;-57
2022/01/29 06:10:49;;;;;;;;;;;;;;;0.19;68.93;100298.63;5093528;28;940;-57
2022/01/29 06:13:16;;;;;;;;;;;;;;;0.51;68.38;100303.84;5093396;28;882;-57
2022/01/29 06:15:47;;;;;;;;;;;;;;;0.91;67.29;100298.94;5075287;28;1452;-57
2022/01/29 06:18:18;;;;;;;;;;;;;;;1.13;65.14;100300.66;5093203;28;1466;-57
2022/01/29 06:20:46;;;;;;;;;;;;;;;1.19;65.06;100307.47;5093364;28;1910;-57
2022/01/29 06:23:14;;;;;;;;;;;;;;;1.28;63.93;100302.03;5093372;28;853;-56
2022/01/29 06:25:41;;;;;;;;;;;;;;;1.57;62.93;100295.75;5075048;28;815;-57
2022/01/29 06:28:08;;;;;;;;;;;;;;;1.76;63.34;100292.59;5093052;28;916;-56
2022/01/29 06:30:35;;;;;;;;;;;;;;;2.11;63.04;100292.34;5093412;28;882;-57
2022/01/29 06:33:11;;;;;;;;;;;;;;;2.59;61.37;100290.94;5093052;28;905;-56
2022/01/29 06:35:39;;;;;;;;;;;;;;;3.00;61.36;100293.88;5092429;28;798;-57
2022/01/29 06:38:07;;;;;;;;;;;;;;;3.23;59.71;100295.03;5092780;28;981;-57
2022/01/29 06:40:34;;;;;;;;;;;;;;;3.22;59.24;100292.63;5092981;28;1956;-56
2022/01/29 06:43:01;;;;;;;;;;;;;;;3.27;58.43;100295.97;5074776;28;2445;-57
2022/01/29 06:45:31;;;;;;;;;;;;;;;3.22;58.66;100290.72;5092912;28;854;-56
2022/01/29 06:47:57;;;;;;;;;;;;;;;2.97;58.94;100300.03;5092758;28;865;-57
2022/01/29 06:50:23;;;;;;;;;;;;;;;2.95;59.00;100308.56;5092790;28;920;-57
2022/01/29 06:52:50;;;;;;;;;;;;;;;3.11;58.54;100313.34;5092676;28;917;-57
2022/01/29 06:55:17;;;;;;;;;;;;;;;3.53;59.03;100305.75;5092561;28;925;-57
2022/01/29 06:57:44;;;;;;;;;;;;;;;4.19;58.16;100312.81;5092575;28;894;-57
2022/01/29 07:00:11;;;;;;;;;;;;;;;4.68;56.95;100303.59;5092526;28;1951;-57
2022/01/29 07:02:37;;;;;;;;;;;;;;;5.07;56.11;100323.00;5108332;28;866;-57
2022/01/29 07:05:05;;;;;;;;;;;;;;;5.46;54.97;100314.94;5074413;28;1700;-57
2022/01/29 07:07:31;;;;;;;;;;;;;;;5.55;54.18;100317.50;5092306;28;787;-57
2022/01/29 07:09:57;;;;;;;;;;;;;;;5.69;53.32;100313.16;5108196;28;862;-57
2022/01/29 07:12:25;;;;;;;;;;;;;;;5.80;53.76;100318.88;5092257;28;894;-57
2022/01/29 07:14:52;;;;;;;;;;;;;;;5.99;53.65;100309.91;5092174;28;1010;-57
2022/01/29 07:17:19;;;;;;;;;;;;;;;5.99;52.87;100312.66;5092165;28;1229;-57
2022/01/29 07:19:45;;;;;;;;;;;;;;;6.21;53.85;100315.84;5092142;28;1905;-57
2022/01/29 07:22:13;;;;;;;;;;;;;;;6.30;52.33;100324.69;5092062;28;1133;-57
2022/01/29 07:24:39;;;;;;;;;;;;;;;6.29;52.27;100323.91;5092054;28;914;-57
2022/01/29 07:27:06;;;;;;;;;;;;;;;6.27;52.06;100330.91;5092316;28;957;-57
2022/01/29 07:29:33;;;;;;;;;;;;;;;6.27;51.49;100319.91;5092023;28;847;-57
2022/01/29 07:31:59;;;;;;;;;;;;;;;6.14;52.90;100322.00;5091928;28;962;-57
2022/01/29 07:34:26;;;;;;;;;;;;;;;6.18;52.81;100316.59;5091911;28;929;-57
2022/01/29 07:36:53;;;;;;;;;;;;;;;6.32;52.27;100316.91;5091921;28;882;-57
2022/01/29 07:39:20;;;;;;;;;;;;;;;6.27;52.31;100322.66;5091916;28;870;-57
2022/01/29 07:41:47;;;;;;;;;;;;;;;6.37;51.81;100327.56;5091911;28;1905;-58
2022/01/29 07:44:13;;;;;;;;;;;;;;;6.46;51.72;100328.16;5091814;28;882;-57
2022/01/29 07:46:40;;;;;;;;;;;;;;;6.16;52.84;100336.16;5073560;28;1195;-57
2022/01/29 07:49:07;;;;;;;;;;;;;;;6.41;51.85;100335.91;5091708;28;807;-57
2022/01/29 07:51:33;;;;;;;;;;;;;;;6.84;51.63;100329.28;5091678;28;954;-57
2022/01/29 07:54:00;;;;;;;;;;;;;;;7.06;50.21;100335.16;5091729;28;862;-57
2022/01/29 07:56:26;;;;;;;;;;;;;;;7.24;49.91;100338.22;5091718;28;930;-58
2022/01/29 07:58:53;;;;;;;;;;;;;;;7.08;49.49;100341.91;5091659;28;894;-58
2022/01/29 08:01:19;;;;;;;;;;;;;;;7.05;50.20;100347.31;5091514;28;1881;-57
2022/01/29 08:03:50;;;;;;;;;;;;;;;6.97;50.78;100346.38;5091940;28;892;-57
2022/01/29 08:06:17;;;;;;;;;;;;;;;7.15;51.13;100327.47;5091473;28;873;-57
2022/01/29 08:08:45;;;;;;;;;;;;;;;7.07;49.30;100348.53;5091683;28;830;-57
2022/01/29 08:11:12;;;;;;;;;;;;;;;7.32;49.04;100359.97;5091431;28;889;-57
2022/01/29 08:13:38;;;;;;;;;;;;;;;7.55;48.89;100354.47;5091488;28;814;-57
2022/01/29 08:16:05;;;;;;;;;;;;;;;7.24;48.81;100358.28;5091711;28;948;-57
2022/01/29 08:18:32;;;;;;;;;;;;;;;7.03;48.44;100357.88;5073226;28;1631;-57
2022/01/29 08:20:58;;;;;;;;;;;;;;;7.12;48.19;100355.69;5091501;28;1914;-58
2022/01/29 08:23:25;;;;;;;;;;;;;;;7.12;48.35;100348.22;5091357;28;1057;-58
2022/01/29 08:25:52;;;;;;;;;;;;;;;7.18;48.95;100351.47;5091361;28;917;-58
2022/01/29 08:28:18;;;;;;;;;;;;;;;7.06;48.97;100346.97;5091248;28;906;-58
2022/01/29 08:30:45;;;;;;;;;;;;;;;6.78;49.05;100358.19;5091376;28;842;-58
2022/01/29 08:33:17;;;;;;;;;;;;;;;6.78;49.65;100349.97;5091652;28;889;-58
2022/01/29 08:35:44;;;;;;;;;;;;;;;6.91;49.93;100351.41;5091117;28;862;-58
2022/01/29 08:38:11;;;;;;;;;;;;;;;6.61;49.75;100344.91;5091121;28;914;-57
2022/01/29 08:40:38;;;;;;;;;;;;;;;6.51;50.09;100352.59;5091144;28;1961;-57
2022/01/29 08:43:05;;;;;;;;;;;;;;;6.82;49.05;100361.03;5091072;28;909;-57
2022/01/29 08:45:31;;;;;;;;;;;;;;;7.05;49.20;100356.34;5091239;28;894;-57
2022/01/29 08:47:58;;;;;;;;;;;;;;;7.08;48.64;100360.31;5091184;28;858;-57
2022/01/29 08:50:25;;;;;;;;;;;;;;;7.24;48.65;100365.72;5091090;28;863;-57
2022/01/29 08:52:51;;;;;;;;;;;;;;;7.31;48.25;100365.84;5091139;28;886;-57
2022/01/29 08:55:16;;;;;;;;;;;;;;;7.23;48.50;100358.63;5091153;28;823;-57
2022/01/29 08:57:43;;;;;;;;;;;;;;;7.39;48.74;100362.06;5092530;28;895;-58
2022/01/29 09:00:10;;;;;;;;;;;;;;;7.52;47.79;100343.41;5094707;28;1939;-58
2022/01/29 09:02:36;;;;;;;;;;;;;;;7.20;47.68;100357.41;5094955;28;807;-58
2022/01/29 09:05:03;;;;;;;;;;;;;;;7.28;48.63;100366.59;5094791;28;834;-58
2022/01/29 09:07:30;;;;;;;;;;;;;;;7.15;48.10;100355.75;5094559;28;898;-57
2022/01/29 09:09:56;;;;;;;;;;;;;;;6.96;48.68;100364.06;5094654;28;835;-58
2022/01/29 09:12:23;;;;;;;;;;;;;;;7.14;49.15;100356.13;5094680;28;842;-58
2022/01/29 09:14:49;;;;;;;;;;;;;;;6.99;48.00;100373.53;5094569;28;1001;-58
2022/01/29 09:17:16;;;;;;;;;;;;;;;6.94;49.26;100374.63;5094450;28;1241;-58
2022/01/29 09:19:42;;;;;;;;;;;;;;;7.13;48.73;100371.81;5094499;28;1905;-58
2022/01/29 09:22:09;;;;;;;;;;;;;;;7.20;48.59;100373.91;5094467;28;842;-58
2022/01/29 09:24:35;;;;;;;;;;;;;;;7.30;49.69;100373.31;5094528;28;863;-58
2022/01/29 09:27:02;;;;;;;;;;;;;;;7.40;48.40;100371.09;5094458;28;811;-58
2022/01/29 09:29:28;;;;;;;;;;;;;;;7.38;48.88;100374.19;5094377;28;885;-58
2022/01/29 09:31:55;;;;;;;;;;;;;;;7.51;46.95;100369.31;5094309;28;870;-58
2022/01/29 09:37:23;;;;;;;;;;;;;;;6.92;48.56;100380.47;5094361;28;699;-58
2022/01/29 09:39:50;;;;;;;;;;;;;;;7.00;49.60;100386.91;5093948;28;1890;-58
2022/01/29 09:42:18;;;;;;;;;;;;;;;7.33;49.13;100366.28;5094515;28;834;-58
2022/01/29 09:44:46;;;;;;;;;;;;;;;7.08;48.47;100380.38;5094143;28;842;-57
2022/01/29 09:47:12;;;;;;;;;;;;;;;7.38;49.03;100378.91;5094081;28;961;-57
2022/01/29 09:49:39;;;;;;;;;;;;;;;7.65;48.82;100379.78;5094088;28;898;-57
2022/01/29 09:52:05;;;;;;;;;;;;;;;7.88;49.10;100371.50;5094535;28;842;-58
2022/01/29 09:54:32;;;;;;;;;;;;;;;7.76;48.22;100384.25;5093907;28;842;-58
2022/01/29 09:56:58;;;;;;;;;;;;;;;7.68;48.46;100373.53;5093815;28;823;-58
2022/01/29 09:59:25;;;;;;;;;;;;;;;7.76;48.19;100375.22;5093772;28;905;-59
2022/01/29 10:01:52;;;;;;;;;;;;;;;7.86;47.78;100373.81;5093593;28;1894;-58
2022/01/29 10:04:18;;;;;;;;;;;;;;;7.90;47.63;100377.41;5093601;28;906;-58
2022/01/29 10:07:05;;;;;;;;;;;;;;;8.21;46.69;100375.47;5093713;28;803;-57
2022/01/29 10:09:34;;;;;;;;;;;;;;;8.20;47.01;100369.19;5092402;28;2010;-58
2022/01/29 10:12:17;;;;;;;;;;;;;;;7.99;46.47;100375.19;5093652;28;865;-58
2022/01/29 10:14:48;;;;;;;;;;;;;;;7.87;47.10;100381.72;5093450;28;893;-58
2022/01/29 10:17:34;;;;;;;;;;;;;;;7.56;47.62;100380.81;5093410;28;1228;-57
2022/01/29 10:20:11;;;;;;;;;;;;;;;7.77;48.04;100382.34;5093093;28;1902;-58
2022/01/29 10:22:38;;;;;;;;;;;;;;;7.73;48.28;100384.22;5093370;28;962;-58
2022/01/29 10:25:06;;;;;;;;;;;;;;;8.43;45.52;100376.59;5093230;28;871;-57
2022/01/29 10:27:32;;;;;;;;;;;;;;;8.69;45.57;100370.25;5093365;28;858;-57
2022/01/29 10:30:00;;;;;;;;;;;;;;;8.21;45.90;100372.72;5093055;28;918;-58
2022/01/29 10:32:28;;;;;;;;;;;;;;;8.08;45.23;100366.66;5093149;28;814;-57
2022/01/29 10:34:56;;;;;;;;;;;;;;;7.65;46.93;100366.00;5075066;28;831;-58
2022/01/29 10:37:26;;;;;;;;;;;;;;;7.68;47.11;100371.59;5093278;28;822;-58
2022/01/29 10:39:54;;;;;;;;;;;;;;;7.77;47.40;100368.56;5092890;28;1874;-58
2022/01/29 10:42:23;;;;;;;;;;;;;;;8.06;45.91;100363.47;5092997;28;864;-58
2022/01/29 10:44:51;;;;;;;;;;;;;;;7.82;46.09;100371.00;5092807;28;953;-58
2022/01/29 10:47:17;;;;;;;;;;;;;;;7.51;46.75;100358.31;5092838;28;933;-58
2022/01/29 10:49:51;;;;;;;;;;;;;;;7.06;47.32;100363.47;5092812;28;858;-58
2022/01/29 10:52:17;;;;;;;;;;;;;;;6.96;48.22;100364.06;5093334;28;847;-58
2022/01/29 10:54:47;;;;;;;;;;;;;;;7.12;47.39;100353.72;5092639;28;826;-58
2022/01/29 10:57:17;;;;;;;;;;;;;;;7.38;47.15;100359.66;5092856;28;925;-58
2022/01/29 10:59:51;;;;;;;;;;;;;;;7.66;47.17;100353.84;5092455;28;1917;-58
2022/01/29 11:02:20;;;;;;;;;;;;;;;8.07;47.00;100349.34;5092479;28;893;-59
2022/01/29 11:04:48;;;;;;;;;;;;;;;8.46;46.25;100346.34;5092594;28;787;-58
2022/01/29 11:07:19;;;;;;;;;;;;;;;9.32;44.67;100346.44;5092376;28;925;-58
2022/01/29 11:09:52;;;;;;;;;;;;;;;9.67;43.22;100353.44;5092168;28;929;-58
2022/01/29 11:12:20;;;;;;;;;;;;;;;9.41;43.03;100341.41;5092153;28;851;-58
2022/01/29 11:14:47;;;;;;;;;;;;;;;8.90;43.97;100339.38;5092321;28;796;-58
2022/01/29 11:17:15;;;;;;;;;;;;;;;8.89;43.95;100338.56;5092163;28;1229;-58
2022/01/29 11:19:42;;;;;;;;;;;;;;;8.56;44.37;100348.44;5091933;28;1917;-58
2022/01/29 11:22:09;;;;;;;;;;;;;;;8.15;44.65;100350.22;5092104;28;819;-58
2022/01/29 11:24:36;;;;;;;;;;;;;;;8.08;45.80;100347.38;5092151;28;803;-58
2022/01/29 11:27:18;;;;;;;;;;;;;;;8.20;45.36;100355.41;5092039;28;1112;-58
2022/01/29 11:30:05;;;;;;;;;;;;;;;8.33;45.36;100337.50;5092042;28;1268;-58
2022/01/29 11:32:33;;;;;;;;;;;;;;;8.54;46.33;100334.25;5081184;28;1786;-58
2022/01/29 11:35:00;;;;;;;;;;;;;;;8.75;45.80;100347.47;5092314;28;922;-58
2022/01/29 11:37:44;;;;;;;;;;;;;;;9.02;45.47;100339.06;5092077;28;826;-58
2022/01/29 11:40:15;;;;;;;;;;;;;;;9.36;44.37;100341.75;5091753;28;1943;-58
2022/01/29 11:43:00;;;;;;;;;;;;;;;9.54;43.58;100331.66;5092296;28;1149;-58
2022/01/29 11:45:45;;;;;;;;;;;;;;;10.05;42.90;100335.56;5091878;28;973;-58
2022/01/29 11:48:20;;;;;;;;;;;;;;;10.30;42.44;100338.47;5091754;28;1045;-58
2022/01/29 11:50:48;;;;;;;;;;;;;;;10.17;42.21;100335.22;5091882;28;890;-58
2022/01/29 11:53:16;;;;;;;;;;;;;;;10.08;42.68;100326.50;5091711;28;869;-58
2022/01/29 11:55:47;;;;;;;;;;;;;;;10.00;42.43;100339.47;5073650;28;1379;-57
2022/01/29 11:58:17;;;;;;;;;;;;;;;10.22;41.64;100336.84;5073579;28;835;-58
2022/01/29 12:00:45;;;;;;;;;;;;;;;10.05;41.60;100343.84;5091555;28;1886;-58
2022/01/29 12:03:32;;;;;;;;;;;;;;;9.47;43.27;100341.84;5091385;28;857;-57
2022/01/29 12:06:21;;;;;;;;;;;;;;;8.50;45.06;100338.91;5080799;28;1822;-58
2022/01/29 12:09:07;;;;;;;;;;;;;;;8.08;46.91;100344.63;5091431;28;851;-58
2022/01/29 12:11:43;;;;;;;;;;;;;;;7.84;47.46;100346.66;5107203;28;825;-58
2022/01/29 12:14:16;;;;;;;;;;;;;;;7.30;48.21;100343.06;5091547;28;938;-58
2022/01/29 12:16:54;;;;;;;;;;;;;;;6.94;49.58;100345.16;5093842;28;1255;-58
2022/01/29 12:19:40;;;;;;;;;;;;;;;6.91;49.71;100347.84;5111901;28;845;-58
2022/01/29 12:22:12;;;;;;;;;;;;;;;6.74;50.10;100349.09;5111863;28;1964;-58
2022/01/29 12:24:39;;;;;;;;;;;;;;;6.73;49.68;100347.53;5111775;28;845;-58
2022/01/29 12:27:06;;;;;;;;;;;;;;;6.69;50.19;100341.16;5111860;28;889;-58
2022/01/29 12:29:33;;;;;;;;;;;;;;;6.70;49.15;100343.56;5111752;28;865;-58
2022/01/29 12:32:00;;;;;;;;;;;;;;;6.63;49.76;100342.59;5112008;28;949;-58
2022/01/29 12:34:28;;;;;;;;;;;;;;;6.56;49.51;100328.75;5115817;28;955;-58
2022/01/29 12:37:15;;;;;;;;;;;;;;;6.56;49.51;100326.78;5115875;28;826;-58
2022/01/29 12:39:43;;;;;;;;;;;;;;;6.52;49.64;100337.69;5097613;28;902;-58
2022/01/29 12:44:43;;;;;;;;;;;;;;;6.53;49.46;100344.78;5115927;28;652;-57
2022/01/29 12:47:23;;;;;;;;;;;;;;;6.62;49.41;100339.06;5115830;28;881;-58
2022/01/29 12:49:50;;;;;;;;;;;;;;;6.68;49.21;100340.38;5115588;28;815;-58
2022/01/29 12:52:17;;;;;;;;;;;;;;;6.77;48.88;100337.41;5115535;28;901;-58
2022/01/29 12:54:57;;;;;;;;;;;;;;;6.85;49.15;100339.13;5115556;28;806;-57
2022/01/29 12:57:25;;;;;;;;;;;;;;;6.83;49.38;100338.69;5115420;28;846;-58
2022/01/29 12:59:52;;;;;;;;;;;;;;;6.88;48.57;100338.38;5115286;28;1960;-58
2022/01/29 13:02:21;;;;;;;;;;;;;;;6.75;49.42;100343.25;5097069;28;1313;-58
2022/01/29 13:04:48;;;;;;;;;;;;;;;6.65;49.49;100349.31;5115301;28;1222;-58
2022/01/29 13:07:17;;;;;;;;;;;;;;;6.51;48.81;100351.81;5115179;28;933;-58
2022/01/29 13:09:43;;;;;;;;;;;;;;;6.59;49.34;100348.03;5115255;28;857;-58
2022/01/29 13:12:12;;;;;;;;;;;;;;;6.80;49.95;100350.38;5115283;28;896;-58
2022/01/29 13:14:39;;;;;;;;;;;;;;;6.83;49.11;100340.63;5114969;28;917;-58
2022/01/29 13:17:07;;;;;;;;;;;;;;;6.97;48.93;100346.38;5115097;28;1255;-58
2022/01/29 13:19:35;;;;;;;;;;;;;;;7.13;49.29;100344.34;5115043;28;810;-58
2022/01/29 13:22:06;;;;;;;;;;;;;;;7.26;48.63;100344.94;5114942;28;1913;-58
2022/01/29 13:24:35;;;;;;;;;;;;;;;7.38;48.39;100338.44;5114916;28;890;-58